Labs

Pokémon
United States
Tournaments

1061 tournaments, 1060 completed

Alabama
7/22 Saturday
11:00 Hoover (35216) 4 + 1 + 14 = 19
6:00 Pinellas Park (33781) 3 + 2 + 28 = 33
6:30 Madison (35758) 1 + 4 + 4 = 9
7/23 Sunday
1:00 Opelika (36801) 1 + 2 + 10 = 13
4:00 Staten Island (10306) 0 + 2 + 11 = 13
7/29 Saturday
11:00 Mobile (36618) 8 + 2 + 30 = 40
12:00 Huntsville (35801) 11 + 11 + 23 = 45
12:00 Prattville (36067) 0 + 2 + 16 = 18
3:00 Mobile (36618) 1 + 4 + 25 = 30
7/30 Sunday
2:00 Leeds (35094) 8 + 1 + 10 = 19
Alaska
7/22 Saturday
2:00 Anchorage (99504) 2 + 6 + 19 = 27
7/23 Sunday
12:00 Anchorage (99515) 4 + 7 + 22 = 33
1:00 Fairbanks (99701) 3 + 4 + 16 = 23
Alberta
7/22 Saturday
10:00 WETASKIWIN (T9A3P5) 11 + 5 + 8 = 24
10:00 Edmonton (T5E 4C3) 1 + 2 + 31 = 34
10:30 St. Albert (T8N 6A7) 7 + 3 + 10 = 20
10:30 Calgary (T2H 0W5) 0 + 1 + 15 = 16
1:00 Edmonton (T5E 4C3) 0 + 1 + 15 = 16
1:00 St. Albert (T8N 6A7) 2 + 1 + 9 = 12
1:30 Calgary (T2H 0W5) 0 + 1 + 11 = 12
7/23 Sunday
10:30 St. Albert (T8N 6A7) 1 + 2 + 5 = 8
12:00 Sydney (B1S 1P4) 6 + 10 + 12 = 28
1:00 St. Albert (T8N 6A7) 1 + 1 + 6 = 8
3:00 Calgary (T2E 8P1) 6 + 7 + 33 = 46
7/27 Thursday
5:45 Edmonton (T6E 2X4) 4 + 1 + 9 = 14
7/28 Friday
6:00 Edmonton (T6E2X4) 1 + 3 + 6 = 10
7/29 Saturday
10:00 Calgary (T3C 0K2) 1 + 4 + 15 = 20
10:00 WETASKIWIN (T9A3P5) 5 + 0 + 3 = 8
10:30 St. Albert (T8N 6A7) 9 + 11 + 11 = 31
1:30 Calgary (T3C 0K2) 1 + 0 + 12 = 13
7/30 Sunday
10:00 Edmonton (T5J3K1) 3 + 8 + 18 = 29
11:45 Whitecourt (T7S 1A4) 8 + 1 + 3 = 12
12:00 Calgary (T2G 5A6) 5 + 7 + 7 = 19
12:30 Red Deer (T4N 1T1) 7 + 4 + 22 = 33
2:00 Edmonton (T5J 3K1) 2 + 4 + 15 = 21
Arizona
7/22 Saturday
Tempe (85281) 1 + 3 + 46 = 50
10:00 Tucson (85719) 4 + 6 + 39 = 49
11:00 Tempe (85384) 0 + 3 + 9 = 12
12:00 Phoenix (85028) 1 + 6 + 20 = 27
3:00 Yuma (85364) 0 + 0 + 12 = 12
3:30 Glendale (85302) 3 + 3 + 44 = 50
5:00 Phoenix (85028) 1 + 0 + 20 = 21
7/23 Sunday
10:00 Tempe (85282) 4 + 4 + 32 = 40
12:00 Yuma (85365) 0 + 1 + 15 = 16
1:30 Tempe (85282) 0 + 2 + 25 = 27
7/25 Tuesday
5:30 Mesa (85204) 7 + 13 + 34 = 54
7/26 Wednesday
5:00 Yuma (85364) 0 + 0 + 11 = 11
7/28 Friday
5:45 Phoenix (85044) 3 + 5 + 24 = 32
7/29 Saturday
10:00 Gilbert (85295) 1 + 7 + 28 = 36
11:00 Tucson (85711) 1 + 8 + 16 = 25
1:30 Gilbert (85234) 4 + 10 + 22 = 36
5:30 Phoenix (85013) 0 + 2 + 27 = 29
7/30 Sunday
9:00 Glendale (85306) 2 + 0 + 14 = 16
11:00 Phoenix (85020) 1 + 10 + 21 = 32
3:00 Glendale (85307) 6 + 11 + 47 = 64
5:00 Glendale (85307) 0 + 0 + 12 = 12
Arkansas
7/22 Saturday
9:00 Fayetteville (72704) 0 + 0 + 10 = 10
9:00 Fayetteville (72704) 0 + 0 + 10 = 10
12:00 Sherwood (72120) 2 + 7 + 7 = 16
7/23 Sunday
11:30 Cabot (72023) 4 + 3 + 13 = 20
7/30 Sunday
12:00 Russellville (72801) 11 + 6 + 39 = 56
British Columbia
7/22 Saturday
9:00 Fort St. John (V1J 1Y7) 2 + 2 + 7 = 11
9:00 Mission (V2V1E4) 0 + 1 + 10 = 11
11:00 Vancouver (V5R 5W2) 4 + 10 + 31 = 45
11:00 Abbotsford (V2S2G7) 8 + 1 + 13 = 22
1:00 Fort St. John (V1J 1Y7) 3 + 2 + 5 = 10
7/23 Sunday
11:00 Abbotsford (V2S2G7) 6 + 3 + 11 = 20
12:00 Surrey (V3T2W1) 10 + 11 + 21 = 42
1:00 Vancouver (V5K 1Z9) 3 + 11 + 12 = 26
7/24 Monday
4:00 Richmond (V6X 0J8) 2 + 2 + 12 = 16
7/28 Friday
4:00 Burnaby (V5H 2C3) 3 + 4 + 17 = 24
5:30 Nanaimo (V9T4K6) 1 + 4 + 21 = 26
7/29 Saturday
11:00 Abbotsford (V2S2G7) 1 + 5 + 2 = 8
1:00 Langley (V4W1L3) 4 + 10 + 9 = 23
7/30 Sunday
11:30 Port Coquitlam (V3B 3N4) 1 + 5 + 17 = 23
1:00 Langley (V4W1L3) 3 + 3 + 10 = 16
California
7/22 Saturday
Salinas (93906) 0 + 1 + 7 = 8
Winnetka (91306) 2 + 0 + 43 = 45
12:01 Clovis (93712-3929) 0 + 2 + 26 = 28
9:15 Clovis (93712-3929) 0 + 11 + 41 = 52
10:00 Roseville (95661) 4 + 10 + 24 = 38
10:00 Bakersfield (93311) 1 + 8 + 19 = 28
10:30 Glendale (91203) 4 + 11 + 61 = 76
11:00 South Gate (90280) 1 + 1 + 29 = 31
11:00 Northridge (91324) 0 + 6 + 24 = 30
11:00 Los Angeles (90036) 7 + 6 + 59 = 72
11:00 Burlingame (94010) 0 + 3 + 13 = 16
11:00 Winnetka (91306) 5 + 2 + 5 = 12
11:30 Hesperia (92345) 6 + 3 + 27 = 36
11:30 SACRAMENTO (95833) 0 + 1 + 13 = 14
12:00 Fountain Valley (92708) 3 + 4 + 19 = 26
12:00 Modesto (95350) 2 + 5 + 33 = 40
12:00 San Francisco (94117) 4 + 9 + 28 = 41
1:00 Sunnyvale (94087) 0 + 0 + 16 = 16
1:30 Elk Grove (95624) 4 + 6 + 25 = 35
1:30 Elk Grove (95624) 11 + 19 + 63 = 93
1:30 Northridge (91324) 0 + 2 + 10 = 12
1:30 Clovis (93712-3929) 2 + 4 + 26 = 32
2:00 Valencia (91355) 2 + 1 + 22 = 25
2:00 Baldwin Park (91706) 3 + 5 + 64 = 72
2:00 San Diego (92101) 2 + 11 + 49 = 62
2:30 Salinas (93906) 2 + 2 + 19 = 23
2:30 San Francisco (94117) 1 + 6 + 25 = 32
3:00 Fresno (93710) 0 + 1 + 8 = 9
3:00 Los Angeles (90036) 3 + 0 + 26 = 29
3:00 South Gate (90280) 0 + 2 + 14 = 16
7/23 Sunday
10:00 santa clara (95050) 18 + 5 + 76 = 99
10:00 Lancaster (93534) 4 + 5 + 37 = 46
10:00 Berkeley (94704) 1 + 6 + 49 = 56
11:00 Temecula (92591) 14 + 10 + 45 = 69
11:00 Northridge (91324) 3 + 1 + 20 = 24
11:30 Victorville (92395) 4 + 1 + 11 = 16
12:00 Vacaville (95688) 2 + 2 + 23 = 27
12:00 La Habra (90631) 6 + 2 + 27 = 35
12:00 Los Angeles (90045) 0 + 3 + 29 = 32
12:30 Eureka (95501) 2 + 5 + 9 = 16
1:00 Oceanside (92058) 5 + 2 + 36 = 43
1:00 Hesperia (92345) 0 + 4 + 20 = 24
1:00 Westminster (92683) 2 + 10 + 23 = 35
2:00 Burlingame (94010) 0 + 2 + 14 = 16
3:00 Los Angeles (90045)
4:00 Temecula (92591) 0 + 0 + 8 = 8
4:00 Los Angeles (90045) 0 + 5 + 27 = 32
7/25 Tuesday
11:30 SACRAMENTO (95833) 3 + 1 + 20 = 24
4:00 Lemon Grove (91945) 0 + 1 + 15 = 16
7/26 Wednesday
7:00 Salinas (93906) 2 + 2 + 9 = 13
7/27 Thursday
5:30 Fresno (93710) 1 + 0 + 19 = 20
7/28 Friday
6:00 ventura (93003) 1 + 12 + 16 = 29
7/29 Saturday
10:00 Carmichael (95608) 2 + 8 + 16 = 26
10:00 Concord (94520) 3 + 11 + 38 = 52
10:00 San Diego (92126) 15 + 14 + 36 = 65
11:00 Northridge (91324) 4 + 3 + 29 = 36
11:00 Northridge (91324) 4 + 2 + 21 = 27
11:00 Hesperia (92345) 4 + 5 + 16 = 25
11:00 Santa Clara (95050) 3 + 3 + 26 = 32
11:30 Victorville (92395) 1 + 2 + 7 = 10
11:30 Santa Maria (93454) 1 + 2 + 13 = 16
12:00 Fountain Valley (92708) 3 + 5 + 20 = 28
12:00 Merced (95340) 3 + 5 + 14 = 22
12:00 Westminster (92683) 6 + 7 + 24 = 37
12:30 Arcata (95521) 1 + 2 + 11 = 14
1:00 Riverside (92503) 3 + 7 + 35 = 45
1:30 Northridge (91324) 1 + 1 + 18 = 20
2:00 Winnetka (91306) 0 + 4 + 8 = 12
3:00 Fresno (93710) 1 + 1 + 16 = 18
4:00 Riverside (92503) 0 + 2 + 38 = 40
7/30 Sunday
10:00 Temecula (92592) 3 + 0 + 28 = 31
10:00 Temecula (92592) 0 + 0 + 12 = 12
11:00 Pasadena (91105) 6 + 8 + 58 = 72
11:00 Berkeley (94704) 6 + 3 + 37 = 46
11:00 Fresno (93710) 0 + 0 + 10 = 10
11:00 Temecula (92591) 4 + 1 + 8 = 13
11:30 Hesperia (92345) 6 + 3 + 16 = 25
12:00 Westminster (92683) 0 + 6 + 15 = 21
12:30 Manteca (95337) 2 + 9 + 42 = 53
12:30 Santa Monica (90401) 4 + 2 + 9 = 15
1:00 Oceanside (92058) 7 + 9 + 23 = 39
4:00 Temecula (92591) 13 + 10 + 38 = 61
Colorado
7/22 Saturday
9:00 Colorado Springs (80918) 8 + 11 + 39 = 58
10:00 Northglenn (80234) 2 + 8 + 33 = 43
12:00 Loveland (80537) 5 + 1 + 6 = 12
1:00 Montrose (81401) 2 + 2 + 4 = 8
3:00 Johnstown (80534) 6 + 6 + 23 = 35
4:00 Arvada (80003) 0 + 1 + 18 = 19
4:00 Greeley (80631) 0 + 1 + 9 = 10
5:00 Fort Collins (80526) 5 + 6 + 16 = 27
7/23 Sunday
9:00 Fort Collins (80526) 1 + 3 + 10 = 14
10:00 Denver (80203) 1 + 12 + 22 = 35
11:00 Aurora (80014) 2 + 5 + 12 = 19
1:00 Fort Collins (80526) 0 + 3 + 7 = 10
1:00 Denver (80231) 1 + 7 + 21 = 29
1:00 Littleton (80123) 0 + 6 + 26 = 32
7/29 Saturday
10:30 Greeley (80631) 0 + 5 + 7 = 12
11:00 Aurora (80012) 3 + 3 + 20 = 26
3:00 Johnstown (80534) 3 + 2 + 17 = 22
5:00 Fort Collins (80526) 1 + 3 + 4 = 8
7/30 Sunday
1:00 Fort Collins (80526) 11 + 15 + 21 = 47
Connecticut
7/22 Saturday
10:00 Danbury (06810) 5 + 0 + 14 = 19
12:00 Newington (06111) 6 + 7 + 18 = 31
7/23 Sunday
9:30 Danbury (06810) 1 + 3 + 10 = 14
2:00 Danbury (06810) 3 + 7 + 9 = 19
7/29 Saturday
11:00 Manchester (06040) 4 + 10 + 26 = 40
Delaware
7/22 Saturday
10:00 Wilmington (19810) 6 + 5 + 37 = 48
12:30 Wilmington (19810) 8 + 7 + 31 = 46
1:00 dover (19904) 1 + 10 + 18 = 29
District of Columbia
7/30 Sunday
12:00 Washington (20003) 0 + 5 + 10 = 15
Florida
7/21 Friday
9:30 Orlando (32828) 1 + 6 + 23 = 30
7/22 Saturday
9:00 Plantation (33317) 1 + 3 + 7 = 11
9:30 Orlando (32828) 2 + 7 + 23 = 32
10:00 Plantation (33317) 1 + 4 + 24 = 29
10:30 Tampa (33617) 3 + 3 + 50 = 56
11:00 Pensacola (32504) 1 + 2 + 15 = 18
11:00 Port St John (32927) 1 + 5 + 10 = 16
11:30 Orlando (32828) 1 + 3 + 28 = 32
12:00 Sanford (32771) 2 + 2 + 7 = 11
12:30 Orlando (32828) 5 + 3 + 22 = 30
1:00 Ocala (34471) 1 + 6 + 15 = 22
3:30 Davie (33024) 3 + 4 + 25 = 32
4:00 Melbourne (32935) 4 + 7 + 20 = 31
6:30 Jacksonville (32244) 2 + 1 + 33 = 36
7/23 Sunday
2:30 Tallahassee (32303) 3 + 1 + 19 = 23
10:00 Coconut Creek (33073) 2 + 5 + 10 = 17
10:30 Tampa (33614) 4 + 4 + 31 = 39
11:00 Tallahassee (32303) 1 + 1 + 33 = 35
11:00 Orlando (32803) 4 + 8 + 36 = 48
11:00 ORLANDO (32839) 2 + 3 + 11 = 16
11:00 Fort Myers (33908) 1 + 1 + 12 = 14
12:00 Sarasota (34232) 5 + 4 + 25 = 34
12:00 West Palm Beach (33409) 4 + 3 + 9 = 16
1:00 Jensen beach (34957) 2 + 4 + 12 = 18
1:00 Miami (33183) 4 + 6 + 62 = 72
4:00 Orlando (32803) 1 + 2 + 15 = 18
7/25 Tuesday
6:00 Tampa (33611) 2 + 2 + 16 = 20
7/26 Wednesday
5:00 Orlando (32837) 0 + 5 + 27 = 32
5:30 Cape Coral (33990) 5 + 1 + 24 = 30
7/28 Friday
6:00 Kissimmee (34741) 0 + 0 + 12 = 12
6:00 Kissimmee (34741) 0 + 0 + 22 = 22
7/29 Saturday
9:00 West Melbourne (32904) 4 + 2 + 16 = 22
10:00 Plantation (33317) 1 + 2 + 6 = 9
10:00 Auburndale (33823) 1 + 2 + 19 = 22
10:30 Lauderhill (33351) 0 + 5 + 10 = 15
11:00 Tampa (33647) 4 + 6 + 23 = 33
11:00 Cape Coral (33990) 6 + 2 + 16 = 24
11:30 Maitland (32751) 10 + 16 + 57 = 83
2:00 Cape Coral (33990) 3 + 0 + 15 = 18
7/30 Sunday
10:30 Winter Park (32792) 0 + 1 + 9 = 10
11:00 Jacksonville (32216) 3 + 3 + 38 = 44
11:00 Tallahassee (32303) 1 + 1 + 12 = 14
11:00 Kissimmee (34746) 2 + 2 + 4 = 8
12:00 West Palm Beach (33409) 3 + 5 + 9 = 17
4:00 Naples (34116) 1 + 3 + 8 = 12
4:00 Dundee (33838) 1 + 3 + 12 = 16
4:30 HOLLYWOOD (33024) 3 + 6 + 47 = 56
Georgia
7/22 Saturday
Duluth (30096) 0 + 1 + 30 = 32
10:30 Columbus (31909) 4 + 4 + 16 = 24
11:00 Kennesaw (30144) 8 + 5 + 66 = 79
11:00 Warner Robins (31088) 3 + 5 + 18 = 26
11:00 Carrollton (30117) 3 + 7 + 9 = 19
11:30 Newnan (30263) 3 + 3 + 18 = 24
12:00 Cumming (30040) 6 + 23 + 29 = 58
12:00 Duluth (30096) 6 + 6 + 29 = 41
12:00 COLUMBUS (31909) 6 + 2 + 16 = 24
12:30 Canton (30114) 1 + 2 + 5 = 8
1:00 Valdosta (31601) 2 + 3 + 14 = 19
2:00 Woodstock (30188) 1 + 2 + 9 = 12
3:30 Macon (31206) 3 + 6 + 28 = 37
4:00 Cumming (30040) 2 + 5 + 8 = 15
7/23 Sunday
11:00 Kennesaw (30144) 7 + 5 + 51 = 63
12:00 Roswell (30075) 7 + 10 + 14 = 31
12:00 Columbus (31909) 1 + 0 + 10 = 11
7/24 Monday
5:30 Columbus (31909) 0 + 0 + 8 = 8
7/25 Tuesday
5:30 Warner Robins (31088) 2 + 4 + 16 = 22
7/26 Wednesday
4:00 Dallas (30157) 10 + 3 + 13 = 26
7/27 Thursday
4:30 Valdosta (31601) 0 + 0 + 9 = 9
7/29 Saturday
10:00 Braselton (30542) 3 + 9 + 22 = 34
11:00 Kennesaw (30144) 9 + 5 + 69 = 83
12:00 Augusta (30907) 2 + 7 + 26 = 35
12:00 Roswell (30076) 6 + 4 + 40 = 50
3:30 Macon (31206) 1 + 2 + 15 = 18
4:00 Valdosta (31601) 0 + 1 + 11 = 12
5:00 Athens (30606) 1 + 9 + 12 = 22
7/30 Sunday
10:00 Roswell (30076) 0 + 3 + 14 = 17
1:00 Valdosta (31601) 0 + 0 + 8 = 8
2:15 Roswell (30076) 1 + 4 + 21 = 26
4:00 Kennesaw (30144) 2 + 1 + 11 = 14
Hawaii
7/22 Saturday
12:00 Honolulu (96817) 4 + 6 + 25 = 35
3:00 Honolulu (96817) 1 + 3 + 17 = 21
7/23 Sunday
12:30 Honolulu (96826) 6 + 3 + 15 = 24
3:00 Honolulu (96826) 1 + 4 + 17 = 22
7/28 Friday
12:00 Honolulu (96815) 2 + 1 + 5 = 8
7/29 Saturday
12:00 Honolulu (96826) 1 + 1 + 7 = 9
6:00 Honolulu (96815) 1 + 0 + 7 = 8
7/30 Sunday
12:00 Honolulu (96826) 1 + 3 + 4 = 8
1:00 Honolulu (96815) 3 + 1 + 6 = 10
Idaho
7/22 Saturday
11:00 nampa (83651) 0 + 4 + 5 = 9
11:00 Meridian (83642) 2 + 3 + 23 = 28
7/23 Sunday
11:00 Boise (83709) 2 + 4 + 16 = 22
7/26 Wednesday
6:00 Moscow (83843) 2 + 1 + 13 = 16
Illinois
7/22 Saturday
Chicago (60641) 0 + 0 + 18 = 18
Berwyn (60402) 3 + 2 + 67 = 72
9:00 Loves Park (61111) 2 + 4 + 17 = 23
9:00 Berwyn (60402) 5 + 2 + 8 = 15
10:00 Romeoville (60446) 4 + 6 + 9 = 19
12:00 Chicago (60611) 4 + 1 + 7 = 12
12:00 Loves Park (61111) 5 + 7 + 21 = 33
1:00 Chicago (60641) 1 + 2 + 15 = 18
1:00 Buffalo Grove (60089) 0 + 6 + 15 = 21
1:00 Berwyn (60402) 5 + 3 + 12 = 20
2:00 Antioch (60002) 1 + 0 + 7 = 8
2:30 Frankfort (60423) 0 + 2 + 9 = 11
3:00 Brookfield (60513) 7 + 4 + 4 = 15
3:00 Glenview (60025) 0 + 5 + 10 = 15
4:00 Loves Park (61111) 1 + 5 + 11 = 17
5:00 Chicago (60641) 1 + 0 + 10 = 11
7/23 Sunday
9:00 Edwardsville (62025) 3 + 5 + 0 = 8
9:00 Carbondale (62901) 0 + 0 + 8 = 8
9:00 Berwyn (60402) 5 + 8 + 25 = 38
12:00 Rockford (61108) 4 + 4 + 16 = 24
12:00 Chicago (60657) 2 + 4 + 14 = 20
12:00 Troy (62294) 5 + 1 + 9 = 15
12:00 Chicago (60607) 10 + 0 + 6 = 16
12:00 Buffalo Grove (60089) 2 + 15 + 23 = 40
1:00 Edwardsville (62025) 0 + 0 + 18 = 18
1:00 Skokie (60077) 1 + 4 + 5 = 10
1:00 Berwyn (60402) 7 + 10 + 42 = 59
1:30 Collinsville (62234) 1 + 5 + 35 = 41
3:00 Glenview (60025) 2 + 4 + 11 = 17
7/24 Monday
4:00 Chicago (60618) 4 + 4 + 0 = 8
5:00 Niles (60714) 10 + 11 + 31 = 52
7/25 Tuesday
3:00 Chicago (60618) 0 + 0 + 10 = 10
5:00 Niles (60714) 8 + 6 + 17 = 31
5:30 Chicago (60618) 3 + 0 + 18 = 21
6:00 Collinsville (62234) 0 + 5 + 11 = 16
7/26 Wednesday
3:00 Loves Park (61111) 1 + 1 + 8 = 10
4:45 Loves Park (61111) 1 + 2 + 9 = 12
7/27 Thursday
5:00 Berwyn (60402) 2 + 2 + 16 = 20
7/29 Saturday
9:00 Berwyn (60402) 1 + 0 + 13 = 14
10:00 Robinson (62454) 0 + 1 + 7 = 8
10:00 Romeoville (60446) 2 + 4 + 11 = 17
11:00 Chicago (60618) 5 + 2 + 1 = 8
11:30 Robinson (62454) 0 + 2 + 7 = 9
12:00 Collinsville (62234) 1 + 3 + 25 = 29
12:00 Chicago (60611) 2 + 2 + 9 = 13
1:00 Berwyn (60402) 1 + 3 + 11 = 15
2:00 Antioch (60002) 1 + 0 + 7 = 8
2:30 Frankfort (60423) 1 + 1 + 10 = 12
11:00 Joliet (60431) 1 + 4 + 27 = 32
7/30 Sunday
Edwardsville (62025) 0 + 0 + 13 = 13
9:00 Berwyn (60402) 0 + 0 + 15 = 15
12:00 Buffalo Grove (60089) 6 + 12 + 11 = 29
1:00 Edwardsville (62025) 4 + 5 + 0 = 9
1:00 Skokie (60077) 1 + 7 + 6 = 14
1:00 Berwyn (60402) 0 + 6 + 18 = 24
4:00 Brookfield (60513) 5 + 1 + 2 = 8
Indiana
7/21 Friday
11:00 Indianapolis (46225) 1 + 3 + 18 = 22
7/22 Saturday
10:00 Indianapolis (46227) 1 + 5 + 30 = 36
10:30 Indianapolis (46250) 1 + 9 + 26 = 36
12:00 Anderson (46013) 0 + 1 + 10 = 11
12:00 Elkhart (46514) 3 + 2 + 9 = 14
5:00 Evansville (47711) 3 + 8 + 26 = 37
6:00 Hobart (46342) 4 + 4 + 16 = 24
6:30 Evansville (47711) 3 + 9 + 29 = 41
7/23 Sunday
12:00 Indianapolis (46227) 2 + 0 + 27 = 29
12:00 Evansville (47711) 2 + 1 + 7 = 10
1:00 Indianapolis (46250) 1 + 10 + 23 = 34
1:00 Indianapolis (46236) 5 + 4 + 6 = 15
1:30 Evansville (47711) 2 + 2 + 10 = 14
7/24 Monday
3:00 Anderson (46016) 3 + 4 + 10 = 17
5:00 Indianapolis (46227) 1 + 2 + 28 = 31
7/25 Tuesday
5:30 Mooresville (46158) 1 + 7 + 8 = 16
7/26 Wednesday
6:00 Fort Wayne (46808) 0 + 5 + 11 = 16
7/27 Thursday
4:30 Valparaiso (46383) 0 + 10 + 22 = 32
7/28 Friday
5:00 Evansville (47711) 1 + 4 + 14 = 19
6:30 Evansville (47711) 0 + 4 + 13 = 17
7/29 Saturday
10:00 Bloomington (47403) 4 + 7 + 5 = 16
10:00 Indianapolis (46227) 2 + 0 + 20 = 22
11:30 Greenfield (46140) 1 + 1 + 10 = 12
3:00 Indianapolis (46268) 6 + 4 + 9 = 19
5:00 Evansville (47711) 1 + 1 + 6 = 8
6:30 Evansville (47711) 0 + 1 + 7 = 8
7/30 Sunday
11:00 Fort Wayne (46804) 3 + 8 + 19 = 30
12:00 Indianapolis (46227) 2 + 1 + 18 = 21
12:00 Evansville (47711) 0 + 5 + 3 = 8
1:30 Evansville (47711) 0 + 6 + 4 = 10
2:00 Indianapolis (46203) 2 + 2 + 8 = 12
Iowa
7/22 Saturday
10:00 Ames (50014) 0 + 1 + 25 = 26
7/23 Sunday
11:00 Des Moines (50325) 6 + 6 + 34 = 46
Kansas
7/22 Saturday
12:01 Lenexa (66210) 1 + 6 + 39 = 46
1:30 Lenexa (66210) 1 + 3 + 21 = 25
12:15 Lenexa (66210) 1 + 2 + 18 = 21
12:15 Lenexa (66210) 0 + 0 + 8 = 8
2:30 Lenexa (66210) 7 + 11 + 34 = 52
7/23 Sunday
11:00 Mission (66205) 2 + 3 + 7 = 12
12:15 Lenexa (66210) 3 + 5 + 16 = 24
2:30 Lenexa (66210) 3 + 2 + 9 = 14
7/29 Saturday
2:00 Leavenworth (66048) 10 + 11 + 13 = 34
6:30 McPherson (67460) 4 + 1 + 11 = 16
Kentucky
7/23 Sunday
2:00 Paducah (42001) 2 + 0 + 6 = 8
7/29 Saturday
12:00 Louisville (40299) 2 + 4 + 32 = 38
2:00 Paducah (42001) 0 + 0 + 8 = 8
4:00 Highland Heights (41076) 5 + 1 + 42 = 48
7/30 Sunday
12:00 Lexington (40502) 0 + 4 + 12 = 16
2:00 Louisville (40299) 1 + 12 + 26 = 39
Louisiana
7/22 Saturday
11:00 Prairieville (70769) 4 + 8 + 22 = 34
12:00 Metairie (70006) 5 + 8 + 31 = 44
2:00 Alexandria (71301) 1 + 0 + 7 = 8
7/23 Sunday
9:00 Metairie (70006) 6 + 5 + 31 = 42
12:00 Shreveport (71105) 5 + 3 + 24 = 32
12:00 Baton Rouge (70817) 6 + 6 + 24 = 36
2:00 Alexandria (71301) 1 + 0 + 9 = 10
7/28 Friday
6:30 Metairie (70003) 1 + 2 + 29 = 32
7/30 Sunday
12:00 Shreveport (71105) 2 + 3 + 19 = 24
Maine
7/22 Saturday
11:00 Presque Isle (04769) 2 + 2 + 15 = 19
11:00 Augusta (04330) 1 + 3 + 5 = 9
7/23 Sunday
11:00 Augusta (04330) 5 + 2 + 22 = 29
12:00 Westbrook (04092) 1 + 13 + 9 = 23
Manitoba
7/22 Saturday
11:00 Winnipeg (R2G 1L4) 3 + 1 + 30 = 34
7/29 Saturday
11:00 Winnipeg (R2V 3C8) 1 + 3 + 13 = 17
11:00 Winnipeg (R2V 3C8) 0 + 0 + 16 = 16
11:00 Winnipeg (R3L 2C2) 4 + 3 + 16 = 23
7/30 Sunday
12:00 Winnipeg (R3T2C5) 1 + 1 + 14 = 16
Maryland
7/22 Saturday
10:00 glen burnie (21061) 5 + 7 + 23 = 35
12:00 Abingdon (21009) 1 + 1 + 15 = 17
7/23 Sunday
11:00 Rockville (20852) 10 + 11 + 34 = 55
12:00 California (20619) 8 + 8 + 19 = 35
12:00 Hunt Valley ( 21030) 5 + 5 + 12 = 22
1:30 Rockville (20852) 0 + 1 + 17 = 18
4:00 California (20619) 0 + 2 + 6 = 8
7/30 Sunday
11:30 Rockville (20852) 8 + 4 + 26 = 38
12:00 California (20619) 3 + 1 + 7 = 11
12:00 Hunt Valley ( 21030) 8 + 9 + 14 = 31
2:00 Rockville (20852) 0 + 3 + 13 = 16
Massachusetts
7/22 Saturday
9:30 Lexington (02421) 4 + 11 + 15 = 30
10:30 CARVER (02330) 4 + 4 + 12 = 20
7/23 Sunday
9:00 New Bedford (02746) 3 + 5 + 24 = 32
10:00 SALEM (01970) 3 + 1 + 13 = 17
11:00 Hadley (01035) 2 + 3 + 20 = 25
11:00 Somerville (02144) 2 + 8 + 26 = 36
2:30 SALEM (01970) 3 + 3 + 7 = 13
4:00 BROCKTON (02302) 0 + 2 + 13 = 15
7/29 Saturday
10:00 Tewksbury (01876) 4 + 1 + 30 = 35
11:30 Abington (02351) 2 + 3 + 11 = 16
7/30 Sunday
11:30 Norton (02766) 4 + 5 + 20 = 29
3:30 BROCKTON (02302) 0 + 3 + 14 = 17
Michigan
7/22 Saturday
Bay City (48706) 0 + 0 + 12 = 12
11:00 Marquette (49855) 0 + 0 + 8 = 8
11:00 Burton (48529) 1 + 0 + 17 = 18
11:00 Garden City (48135) 1 + 6 + 17 = 24
11:00 Ludington (49431) 0 + 0 + 10 = 10
11:00 East Lansing (48823) 0 + 7 + 9 = 16
12:00 Flint (48507) 2 + 1 + 8 = 11
12:00 Kentwood (49512) 5 + 5 + 38 = 48
12:00 Battle Creek (49015) 4 + 1 + 11 = 16
12:00 Howell (48843) 0 + 2 + 18 = 20
12:00 Clinton Township (48038) 9 + 9 + 23 = 41
12:30 Westland (48185) 4 + 4 + 14 = 22
3:00 Bay City (48706) 0 + 3 + 14 = 17
4:00 Clinton Township (48038) 1 + 0 + 23 = 24
5:00 Garden City (48135) 1 + 4 + 24 = 29
7/23 Sunday
12:00 Clinton Township (48038) 2 + 0 + 16 = 18
2:00 livonia (48154) 4 + 5 + 21 = 30
3:00 Clinton Township (48038) 1 + 0 + 14 = 15
6:00 Clinton Township (48038) 0 + 1 + 8 = 9
7/25 Tuesday
5:00 Ludington (49431) 0 + 0 + 12 = 12
7/26 Wednesday
6:00 Tecumseh (49286) 0 + 5 + 19 = 24
7/29 Saturday
11:00 Burton (48529) 0 + 3 + 18 = 21
11:00 Ludington (49431) 0 + 0 + 10 = 10
11:00 Garden City (48135) 3 + 6 + 13 = 22
12:00 Grand Rapids (49534) 1 + 5 + 37 = 43
12:00 Howell (48843) 3 + 11 + 16 = 30
1:00 Holt (48842) 1 + 1 + 8 = 10
2:30 Clinton Township (48038) 1 + 6 + 17 = 24
3:00 Grand Rapids (49534) 2 + 2 + 32 = 36
5:00 Clinton Township (48038) 0 + 0 + 8 = 8
Minnesota
7/22 Saturday
10:00 Morris (56267) 0 + 7 + 8 = 15
10:00 Roseville (55113) 4 + 10 + 45 = 59
11:00 Cambridge (55008) 1 + 3 + 10 = 14
11:00 Northfield (55057) 4 + 5 + 15 = 24
12:00 Mankato (56001) 1 + 5 + 6 = 12
12:00 Burnsville (55306) 1 + 10 + 24 = 35
3:00 Winona (55987) 6 + 5 + 5 = 16
11:00 Rochester (55906) 3 + 2 + 6 = 11
7/26 Wednesday
6:00 Columbia Heights (55421) 0 + 8 + 8 = 16
7/28 Friday
5:00 Maplewood (55109) 1 + 5 + 35 = 41
7/29 Saturday
10:00 St Cloud (56301) 3 + 1 + 7 = 11
10:00 Duluth (55807) 5 + 6 + 19 = 30
11:00 South St Paul (55075) 6 + 11 + 37 = 54
12:00 Waite Park (56387) 0 + 0 + 12 = 12
12:00 Minneapolis (55406) 5 + 16 + 17 = 38
3:00 Winona (55987) 0 + 2 + 6 = 8
5:00 Moorhead (56560) 1 + 2 + 13 = 16
7/30 Sunday
Coon Rapids (55448) 3 + 6 + 13 = 22
11:00 Duluth (55807) 5 + 6 + 11 = 22
12:00 Saint Louis Park (55426) 3 + 13 + 24 = 40
Mississippi
7/22 Saturday
10:00 Gautier (39553) 6 + 3 + 29 = 38
12:00 Ridgeland (39157) 4 + 1 + 3 = 8
12:00 Ridgeland (39157) 4 + 1 + 4 = 9
2:00 Pearl (39208) 1 + 1 + 6 = 8
5:00 Pearl (39208) 0 + 3 + 9 = 12
7/23 Sunday
2:00 Pearl (39208) 0 + 1 + 9 = 10
7/29 Saturday
10:00 Hattiesburg (39402) 0 + 4 + 10 = 14
12:00 Ridgeland (39157) 4 + 1 + 5 = 10
2:30 Pearl (39208) 0 + 0 + 10 = 10
5:00 Pearl (39208) 0 + 1 + 11 = 12
7/30 Sunday
10:00 Tupelo (38804) 1 + 2 + 25 = 28
11:00 Hattiesburg (39402) 0 + 1 + 14 = 15
2:00 Pearl (39208) 1 + 3 + 34 = 38
Missouri
7/22 Saturday
12:01 Independence (64050-3705) 1 + 3 + 14 = 18
12:01 Crestwood (63126) 1 + 4 + 49 = 54
3:00 Independence (64050-3705) 0 + 0 + 8 = 8
9:00 West Plains (65775) 3 + 4 + 9 = 16
9:30 Sedalia (65301-4331) 0 + 2 + 6 = 8
12:00 St. Louis (63128) 5 + 7 + 10 = 22
12:00 ofallon (63366) 4 + 12 + 18 = 34
12:00 Springfield (65804) 1 + 6 + 13 = 20
12:30 Crestwood (63126) 3 + 4 + 16 = 23
1:30 Sedalia (65301) 7 + 10 + 36 = 53
2:30 Independence (64050-3705) 3 + 3 + 15 = 21
3:30 Crestwood (63126) 1 + 4 + 14 = 19
5:00 Independence (64050-3705) 0 + 1 + 8 = 9
6:00 Springfield (65804) 0 + 1 + 13 = 14
7/23 Sunday
12:30 Crestwood (63126) 3 + 5 + 19 = 27
12:00 Springfield (65804) 4 + 3 + 7 = 14
1:15 Independence (64050-3705) 0 + 1 + 7 = 8
7/25 Tuesday
6:30 St. Peters (63376) 2 + 6 + 10 = 18
7/26 Wednesday
6:30 Crestwood (63126) 1 + 5 + 33 = 39
7/27 Thursday
6:00 St. Charles (63303) 4 + 5 + 5 = 14
7/29 Saturday
9:00 West Plains (65775) 3 + 2 + 6 = 11
12:00 Springfield (65804) 4 + 4 + 20 = 28
5:00 Independence (64050-3705) 1 + 0 + 9 = 10
6:00 Springfield (65804) 3 + 6 + 24 = 33
6:30 Independence (64050-3705) 1 + 0 + 7 = 8
Montana
7/22 Saturday
11:00 Great Falls (59401) 1 + 1 + 10 = 12
11:00 Missoula (59801) 2 + 2 + 18 = 22
7/29 Saturday
11:00 Great Falls (59401) 0 + 2 + 6 = 8
11:00 Missoula (59801) 1 + 0 + 7 = 8
Nebraska
7/22 Saturday
10:00 McCook (69001) 4 + 2 + 7 = 13
10:00 Omaha (68144) 5 + 6 + 25 = 36
12:00 Grand Island (68803) 2 + 1 + 8 = 11
12:00 North Platte (69101) 1 + 7 + 0 = 8
7/23 Sunday
12:00 Kearney (68845) 2 + 2 + 12 = 16
12:00 Lincoln (68506) 2 + 3 + 7 = 12
5:00 Kearney (68845) 1 + 1 + 8 = 10
7/25 Tuesday
12:00 Bellevue (68005) 12 + 16 + 33 = 61
7/27 Thursday
5:00 Omaha (68164) 4 + 4 + 16 = 24
Nevada
7/22 Saturday
10:00 Las Vegas (89147) 1 + 8 + 39 = 48
12:00 Reno (89502) 0 + 1 + 35 = 36
7/23 Sunday
11:00 Reno (89502) 3 + 1 + 15 = 19
1:00 Las Vegas (89121) 0 + 3 + 25 = 28
7/29 Saturday
10:00 Las Vegas (89147) 3 + 2 + 21 = 26
1:00 Las Vegas (89146) 1 + 7 + 40 = 48
7/30 Sunday
1:00 Las Vegas (89121) 0 + 6 + 72 = 78
New Brunswick
7/22 Saturday
11:30 Saint John (E2M 7X1) 3 + 4 + 18 = 25
11:30 Saint John (E2L2H3) 2 + 5 + 12 = 19
7/28 Friday
11:00 Moncton (E1C 2N4) 4 + 7 + 19 = 30
7/29 Saturday
11:30 Saint John (E2M 7X1) 5 + 2 + 11 = 18
7/30 Sunday
12:30 Fredericton (E3B 3B9) 1 + 1 + 18 = 20
New Hampshire
7/22 Saturday
10:00 Londonderry (03053) 7 + 11 + 30 = 48
7/23 Sunday
9:00 Nashua (03063) 0 + 2 + 10 = 12
10:00 Nashua (03063) 3 + 12 + 26 = 41
7/29 Saturday
9:00 Nashua (03063) 0 + 3 + 5 = 8
10:00 Nashua (03063) 2 + 5 + 22 = 29
10:15 Rochester (03867) 3 + 8 + 31 = 42
7/30 Sunday
10:00 Lebanon (03766) 2 + 4 + 9 = 15
11:00 Manchester (03103) 2 + 5 + 19 = 26
New Jersey
7/22 Saturday
Clifton (07012 ) 0 + 2 + 33 = 35
9:00 Cedar Grove (07009) 6 + 13 + 41 = 60
10:00 Matawan (07747) 6 + 9 + 20 = 35
12:00 Haddon Township (08108) 0 + 3 + 13 = 16
12:00 Livingston (07039) 10 + 5 + 10 = 25
7/23 Sunday
11:00 Egg Harbor Township (08234) 3 + 11 + 34 = 48
11:00 Egg Harbor Township (08234) 2 + 4 + 16 = 22
11:15 Randolph (07869) 5 + 11 + 17 = 33
12:00 Boonton (07005) 7 + 6 + 20 = 33
1:00 Randolph (07869) 0 + 5 + 9 = 14
7/28 Friday
5:30 Boonton (07005) 8 + 8 + 23 = 39
7/29 Saturday
10:00 Scotch Plains (07076) 5 + 11 + 27 = 43
10:00 Hamilton (08619) 4 + 15 + 18 = 37
10:00 Hamilton (08619) 4 + 7 + 15 = 26
12:00 Franklin (07416) 0 + 4 + 8 = 12
1:30 Franklin (07416) 0 + 4 + 6 = 10
7/30 Sunday
11:00 Randolph (07869) 0 + 6 + 17 = 23
New Mexico
7/22 Saturday
10:00 Albuquerque (87120) 1 + 0 + 21 = 22
7/23 Sunday
11:00 Albuquerque (87114) 5 + 2 + 11 = 18
7/29 Saturday
5:00 Albuquerque (87106) 2 + 2 + 19 = 23
New York
7/22 Saturday
9:00 Williamsville (14221) 3 + 1 + 60 = 64
9:25 New York (10016) 1 + 1 + 22 = 24
10:00 massapequa park (11762) 2 + 1 + 9 = 12
11:00 Albany (12205) 4 + 1 + 9 = 14
11:00 Watervilet (12189) 5 + 6 + 36 = 47
12:00 Rochester (14623) 3 + 9 + 21 = 33
12:00 Fredonia (14063) 2 + 0 + 7 = 9
12:00 Rochester (14623) 4 + 6 + 32 = 42
12:00 Nanuet (10954) 8 + 6 + 10 = 24
12:00 Brooklyn (11232) 0 + 0 + 8 = 8
12:00 Wantagh (11793) 1 + 7 + 12 = 20
12:00 West Babylon (11704) 3 + 2 + 16 = 21
12:00 Johnson City (13790) 2 + 2 + 20 = 24
12:15 New York (10016) 2 + 8 + 36 = 46
1:00 Oneida (13421) 5 + 6 + 15 = 26
2:00 Hyde Park (12538) 0 + 1 + 9 = 10
2:00 Locust Valley (11560) 17 + 7 + 1 = 25
2:00 CROTON ON HUDSON (10520) 2 + 11 + 26 = 39
2:00 Selden (11784) 0 + 2 + 15 = 17
3:00 West Babylon (11704) 2 + 1 + 8 = 11
3:00 Herkimer (13350) 0 + 0 + 9 = 9
3:15 New York (10016) 1 + 5 + 25 = 31
5:00 Kenmore (14217) 2 + 2 + 25 = 29
7/23 Sunday
10:00 Catskill (12414) 4 + 6 + 17 = 27
11:00 Flushing (11354) 0 + 3 + 20 = 23
11:00 Albany (12205) 0 + 10 + 26 = 36
11:00 Brooklyn (11229) 2 + 7 + 21 = 30
11:00 Astoria (11103) 2 + 0 + 9 = 11
11:00 Lynbrook (11563) 5 + 10 + 23 = 38
12:00 Kenmore (14217) 0 + 1 + 7 = 8
1:00 Brooklyn (11231) 4 + 2 + 9 = 15
2:00 Hyde Park (12538) 2 + 5 + 17 = 24
2:00 Selden (11784) 1 + 0 + 26 = 27
2:30 Flushing (11354) 1 + 2 + 31 = 34
3:00 Brooklyn (11229) 3 + 4 + 8 = 15
3:00 Lynbrook (11563) 0 + 3 + 14 = 17
7/25 Tuesday
5:00 Fredonia (14063) 2 + 2 + 20 = 24
7/26 Wednesday
5:30 Selden (11784) 1 + 1 + 27 = 29
7/27 Thursday
5:30 Selden (11784) 0 + 0 + 22 = 22
7/28 Friday
5:00 Catskill (12414) 1 + 4 + 8 = 13
5:20 derby (14047) 6 + 7 + 21 = 34
7/29 Saturday
12:00 East Greenbush (12061) 3 + 2 + 16 = 21
12:00 West Babylon (11704) 3 + 3 + 14 = 20
2:00 CROTON ON HUDSON (10520) 4 + 6 + 19 = 29
5:00 Kenmore (14217) 1 + 2 + 9 = 12
5:00 Amsterdam (12010) 3 + 1 + 15 = 19
7/30 Sunday
12:00 Clifton Park (12065) 3 + 6 + 25 = 34
12:00 Rochester (14625) 1 + 1 + 10 = 12
12:00 Kenmore (14217) 2 + 3 + 13 = 18
2:00 Selden (11784) 1 + 1 + 15 = 17
5:30 Selden (11784) 0 + 0 + 16 = 16
Newfoundland and Labrador
7/22 Saturday
12:00 Mount Pearl (A1N 1W3) 2 + 6 + 16 = 24
North Carolina
7/22 Saturday
Matthews (28105) 1 + 0 + 22 = 23
10:00 Hildebran (28637) 3 + 1 + 17 = 21
10:00 Matthews (28105) 2 + 5 + 7 = 14
10:30 Charlotte (28214) 5 + 4 + 9 = 18
11:00 Hickory (28602) 2 + 2 + 18 = 22
11:00 Greenville (27858) 4 + 3 + 27 = 34
11:30 Statesville (28625) 1 + 3 + 18 = 22
12:00 Greensboro (27407) 1 + 0 + 14 = 15
12:00 Jacksonville (28546) 1 + 2 + 29 = 32
12:00 Asheville (28805) 1 + 5 + 18 = 24
12:00 Cornelius (28031) 5 + 2 + 8 = 15
1:00 Wilmington (28403) 7 + 3 + 26 = 36
2:30 Charlotte (28214) 2 + 2 + 11 = 15
7/23 Sunday
11:00 Kannapolis (28083) 4 + 2 + 17 = 23
12:00 Raleigh (27603) 1 + 9 + 15 = 25
1:00 Charlotte (28214) 3 + 2 + 3 = 8
4:00 Charlotte (28214) 0 + 0 + 13 = 13
7/24 Monday
5:00 Hildebran (28637) 0 + 0 + 11 = 11
7/27 Thursday
6:30 Charlotte (28214) 1 + 3 + 4 = 8
7/29 Saturday
9:00 Cary (27511) 3 + 5 + 24 = 32
10:00 Cary (27511) 1 + 4 + 11 = 16
10:00 Matthews (28105) 2 + 4 + 11 = 17
1:00 Charlotte (28214) 5 + 5 + 6 = 16
1:00 Wilmington (28403) 6 + 4 + 17 = 27
4:00 Charlotte (28214) 1 + 0 + 7 = 8
7/30 Sunday
11:00 Kannapolis (28083) 8 + 4 + 9 = 21
11:00 Durham (27707) 11 + 10 + 33 = 54
North Dakota
7/23 Sunday
12:00 Fargo (58102) 2 + 3 + 14 = 19
3:00 Fargo (58102) 0 + 4 + 13 = 17
7/27 Thursday
5:30 Fargo (58103) 2 + 1 + 17 = 20
Nova Scotia
7/22 Saturday
9:00 YARMOUTH (B5A 1E6) 0 + 2 + 22 = 24
7/30 Sunday
12:00 Sydney (B1P1C6) 0 + 1 + 9 = 10
12:30 Halifax (B3L 1A4) 9 + 7 + 20 = 36
Ohio
7/22 Saturday
10:00 Kettering (45429) 7 + 8 + 54 = 69
10:00 North Olmsted (44070) 7 + 12 + 39 = 58
10:45 Cuyahoga Falls (44222) 9 + 4 + 43 = 56
11:00 Columbus (43210) 0 + 4 + 23 = 27
12:00 Findlay (45840) 2 + 10 + 17 = 29
12:30 Streetsboro (44241) 7 + 4 + 26 = 37
1:30 Columbus (43210) 0 + 4 + 23 = 27
4:00 Columbus (43210) 0 + 0 + 8 = 8
5:00 Ashtabula (44004) 10 + 12 + 37 = 59
5:00 Kent (44242) 0 + 1 + 23 = 24
7/23 Sunday
11:00 Niles (44446 ) 1 + 3 + 8 = 12
11:00 Sandusky (44870) 1 + 3 + 17 = 21
12:00 Toledo (43617) 3 + 4 + 11 = 18
12:00 Green (44685) 2 + 2 + 22 = 26
12:00 Sylvania (43560) 5 + 4 + 21 = 30
12:15 Medina (44256) 6 + 1 + 20 = 27
12:15 Mentor (44060) 0 + 0 + 16 = 16
1:30 dayton (45431) 1 + 2 + 11 = 14
3:00 Medina (44256) 3 + 0 + 11 = 14
3:30 Green (44685) 2 + 0 + 22 = 24
7/24 Monday
5:15 Green (44685) 2 + 1 + 29 = 32
7/25 Tuesday
5:15 Canton (44718) 5 + 11 + 29 = 45
7/26 Wednesday
5:15 Sheffield Village (44035-1439) 1 + 3 + 29 = 33
7/27 Thursday
4:00 Streetsboro (44241) 0 + 0 + 9 = 9
5:00 Ashtabula (44004) 4 + 8 + 10 = 22
7/28 Friday
5:15 Sheffield Village (44035-1439) 0 + 1 + 10 = 11
7/29 Saturday
12:00 Centerville (45459) 5 + 17 + 13 = 35
12:00 Dublin (43017) 4 + 4 + 26 = 34
3:00 Strongsville (44136) 5 + 11 + 25 = 41
7:00 Dublin (43017) 6 + 4 + 24 = 34
7/30 Sunday
10:00 Columbus (43214) 3 + 6 + 22 = 31
12:00 Galion (44833) 0 + 4 + 19 = 23
12:00 Sylvania (43560) 3 + 5 + 27 = 35
12:15 Alliance (44601) 4 + 2 + 8 = 14
7:00 Dublin (43017) 5 + 6 + 21 = 32
Oklahoma
7/22 Saturday
12:00 Jenks (74037) 1 + 4 + 13 = 18
5:00 Tulsa (74112) 3 + 6 + 14 = 23
7/23 Sunday
12:00 Tulsa (74133) 6 + 11 + 45 = 62
7/24 Monday
5:00 Norman (73069) 2 + 5 + 25 = 32
Ontario
7/22 Saturday
North Bay (P1A2A5) 0 + 0 + 12 = 12
Windsor (N8W 1B9) 0 + 0 + 10 = 10
Niagara Falls (L2E 2L4) 2 + 0 + 8 = 10
9:00 Brampton (L6Z 1R3) 3 + 3 + 11 = 17
9:00 Oshawa (L1G 1K6) 6 + 13 + 26 = 45
10:30 Toronto (M4Y1X9) 4 + 7 + 36 = 47
11:00 Vaughan (L4K 2A1) 4 + 5 + 39 = 48
11:00 Windsor (N8W 1C2) 2 + 2 + 7 = 11
11:00 Windsor (N8W 1B9) 0 + 0 + 21 = 21
11:00 oakville (L6K2G3) 4 + 14 + 25 = 43
11:00 Burlington (L7R 2E4) 2 + 0 + 16 = 18
11:00 Toronto (M4Y1X9) 4 + 3 + 31 = 38
11:15 Toronto (Scarborough) (M1V 1K4) 2 + 4 + 27 = 33
11:30 Mississauga (L5L 3A2) 9 + 16 + 36 = 61
12:00 Ottawa (K2J 5G4) 6 + 8 + 11 = 25
1:00 Thunder Bay (P7B 1K3) 2 + 1 + 12 = 15
2:00 Brampton (L6Z 1R3) 7 + 15 + 13 = 35
5:00 Toronto (M4E1E8) 4 + 3 + 5 = 12
7/23 Sunday
9:30 Toronto (M4E1E8) 3 + 4 + 3 = 10
9:30 Whitby (L1N 5H5) 5 + 4 + 10 = 19
11:00 Grimsby (L3M1R4) 1 + 6 + 2 = 9
11:00 St. Catharines (L2R 5J3) 1 + 0 + 8 = 9
11:00 Waterloo (N2L 6L7) 8 + 4 + 27 = 39
11:00 Hamilton (L8T 2R5) 3 + 1 + 21 = 25
11:00 Toronto (M4C 1J8) 2 + 0 + 14 = 16
11:15 Toronto (Scarborough) (M1V 1K4) 7 + 2 + 23 = 32
11:30 Brampton (L6Y 1N7) 12 + 18 + 38 = 68
11:30 North Bay (P1A2A5) 2 + 4 + 12 = 18
11:30 Barrie (L4M 6J4) 5 + 2 + 14 = 21
12:00 Hamilton (L8S 1K5) 3 + 4 + 11 = 18
12:00 Windsor (N8W 1C2) 0 + 2 + 10 = 12
12:00 Ottawa (K1K 3B7) 3 + 12 + 23 = 38
12:00 London (N6E3M2) 2 + 8 + 19 = 29
7/26 Wednesday
4:00 Guelph (N1H7T8) 6 + 3 + 7 = 16
7:30 Toronto (Scarborough) (M1V 1K4) 0 + 0 + 8 = 8
7/27 Thursday
4:00 Guelph (N1G4W3) 3 + 0 + 12 = 15
7/28 Friday
6:00 Windsor (N8W 1C2) 1 + 1 + 8 = 10
7/29 Saturday
10:00 Mississauga (L5A 3Y1) 5 + 15 + 15 = 35
11:00 oakville (L6K2G3) 5 + 10 + 19 = 34
11:15 Toronto (Scarborough) (M1V 1K4) 2 + 3 + 13 = 18
11:30 Vaughan (L4J7Y3) 0 + 9 + 17 = 26
12:00 Cambridge (N3H4W5) 4 + 3 + 21 = 28
12:00 Orangeville (L9W 1K2) 5 + 6 + 11 = 22
3:30 Vaughan (L4J7Y3) 0 + 4 + 8 = 12
7/30 Sunday
9:30 Toronto (M4E1E8) 3 + 6 + 5 = 14
11:00 Oshawa (L1G 1K6) 2 + 3 + 12 = 17
11:00 Waterloo (N2L 6L7) 3 + 2 + 17 = 22
11:00 Georgetown (L7G3Z5) 2 + 4 + 8 = 14
11:00 Hamilton (L9B 2N1) 1 + 0 + 7 = 8
11:30 Vaughan (L4J7Y3) 3 + 6 + 16 = 25
11:30 Barrie (L4M 6J4) 4 + 3 + 22 = 29
12:00 Toronto (M4N2L2) 2 + 2 + 6 = 10
12:00 Milton (L9T 5B2) 2 + 7 + 22 = 31
12:00 North York (M2M 3X9) 3 + 3 + 7 = 13
12:00 Thunder Bay (P7B 3Z9) 2 + 8 + 8 = 18
12:30 Burlington (L7R 2E4) 0 + 2 + 6 = 8
2:00 Waterloo (N2L 6L7) 1 + 3 + 10 = 14
5:30 North Bay (P1B1G4) 1 + 2 + 15 = 18
Oregon
7/22 Saturday
9:30 Aloha (97003) 11 + 19 + 16 = 46
11:00 Springfield (97477) 0 + 0 + 9 = 9
11:00 Portland (97214) 7 + 17 + 46 = 70
12:00 Milwaukie (97267) 6 + 7 + 50 = 63
1:00 Salem (97306) 8 + 11 + 13 = 32
2:00 Medford (97501) 0 + 6 + 9 = 15
7/23 Sunday
10:30 Salem (97301) 8 + 6 + 24 = 38
12:00 Wilsonville (97070) 1 + 5 + 13 = 19
7/24 Monday
5:30 Troutdale (97060) 7 + 3 + 10 = 20
7/25 Tuesday
5:30 Milwaukie (97032) 6 + 7 + 16 = 29
7/26 Wednesday
3:30 Hood River (97031) 3 + 6 + 3 = 12
7/29 Saturday
10:00 Albany (97321) 4 + 0 + 7 = 11
10:00 Bend (97702) 1 + 6 + 11 = 18
12:30 Portland (97202) 5 + 8 + 15 = 28
7/30 Sunday
11:00 Salem (97301) 1 + 1 + 12 = 14
11:30 Eugene (97402) 0 + 5 + 7 = 12
Pennsylvania
7/22 Saturday
Lancaster (17603) 1 + 1 + 21 = 23
10:00 Lancaster (17603) 2 + 3 + 17 = 22
11:00 READING (19605) 0 + 0 + 16 = 16
11:00 Monroeville (15146) 4 + 9 + 17 = 30
12:00 Reading (19605) 0 + 2 + 6 = 8
12:00 Indiana (15701) 2 + 3 + 7 = 12
12:00 Bethel Park (15102) 9 + 10 + 41 = 60
12:00 Bellefonte (16823) 3 + 6 + 12 = 21
3:00 Lancaster (17603) 6 + 6 + 11 = 23
4:00 sharon (16146) 2 + 1 + 18 = 21
7/23 Sunday
11:00 East Norriton (19401) 10 + 10 + 44 = 64
11:00 Tarentum (15084) 5 + 2 + 19 = 26
12:00 York (17402) 11 + 7 + 38 = 56
12:00 Bellefonte (16823) 0 + 5 + 4 = 9
12:00 West Mifflin (15123) 3 + 2 + 17 = 22
1:00 Boyertown (19512) 2 + 5 + 14 = 21
1:30 East Norriton (19401) 3 + 9 + 39 = 51
7/26 Wednesday
4:00 Pittsburgh (15232) 6 + 4 + 22 = 32
7/29 Saturday
10:00 Holmes (19043) 7 + 19 + 39 = 65
11:00 BUTLER (16001) 2 + 7 + 10 = 19
12:00 Lancaster (17603) 2 + 3 + 13 = 18
12:00 Altoona (16602) 0 + 3 + 12 = 15
12:30 Erie (16505) 1 + 2 + 9 = 12
7/30 Sunday
11:59 New Holland (17557) 2 + 3 + 20 = 25
1:00 Stroudsburg (18360) 2 + 7 + 34 = 43
1:00 Cranberry Township (16066) 2 + 1 + 15 = 18
3:00 New Holland (17557) 4 + 2 + 15 = 21
Puerto Rico
7/22 Saturday
Caguas (00725) 1 + 3 + 14 = 18
11:00 Caguas (00725) 0 + 0 + 29 = 29
1:00 Ponce (00717) 0 + 1 + 13 = 14
2:30 San Juan (00924) 0 + 0 + 16 = 16
7/23 Sunday
11:00 Aguadilla (00603) 1 + 3 + 28 = 32
7/29 Saturday
9:00 Humacao (00791) 2 + 3 + 8 = 13
7/30 Sunday
9:00 Carolina (00983) 1 + 0 + 15 = 16
Quebec
7/21 Friday
10:00 Montréal ( H3B 1H5) 2 + 0 + 6 = 8
7/22 Saturday
Chateauguay (J6K 3J9) 0 + 0 + 8 = 8
9:00 Québec (G1K 3B9) 1 + 0 + 16 = 17
9:00 Québec (G1K 3B9) 0 + 1 + 17 = 18
9:30 joliette (J6E 5E8) 0 + 3 + 12 = 15
10:00 Ste-Therese (J7E3H4) 4 + 3 + 12 = 19
10:00 Sherbrooke (J1G 1B6) 2 + 0 + 13 = 15
10:00 Saint-Jean-sur-Richelieu (J3B 2J7) 0 + 1 + 7 = 8
10:00 Verdun (H4G1W6) 3 + 0 + 9 = 12
11:00 Chateauguay (J6K 1C4) 0 + 1 + 13 = 14
11:30 Gatineau (J9H 6A6) 3 + 11 + 13 = 27
12:00 Montreal (H2K2H9) 0 + 0 + 19 = 19
12:00 Sherbrooke (J1H 5A9) 9 + 6 + 11 = 26
7/23 Sunday
10:00 Ste-Therese (J7E3H4) 1 + 3 + 8 = 12
10:00 Montréal ( H3B 1H5) 0 + 0 + 11 = 11
10:30 Gatineau (J8T 6H5) 4 + 8 + 22 = 34
11:00 Gatineau (J8T 6H5) 1 + 0 + 10 = 11
11:00 Montreal (H2S 2M2) 4 + 7 + 6 = 17
11:00 Saint-Jerome (J7Z5B8) 2 + 1 + 11 = 14
12:00 Chateauguay (J6K 3J9) 2 + 3 + 10 = 15
1:30 Montreal (H3L 2E8) 3 + 1 + 10 = 14
7/25 Tuesday
4:00 Montreal (H2K2H9) 0 + 0 + 10 = 10
5:00 Montréal ( H3B 1H5) 0 + 0 + 28 = 28
5:30 Ste-Therese (J7E3H4) 4 + 2 + 28 = 34
7/26 Wednesday
6:00 Montreal (H3L 2E8) 0 + 0 + 12 = 12
7/29 Saturday
10:00 Ste-Therese (J7E3H4) 2 + 1 + 7 = 10
10:00 Montréal ( H3B 1H5) 0 + 1 + 9 = 10
12:00 Chateauguay (J6K 3J9) 2 + 3 + 11 = 16
5:00 Longueuil (J4K 2C5) 1 + 3 + 37 = 41
7/30 Sunday
10:00 Ste-Therese (J7E3H4) 5 + 1 + 14 = 20
10:00 Montreal (H2S 2M5) 2 + 2 + 15 = 19
10:00 Sherbrooke (J1G 1B6) 1 + 0 + 16 = 17
10:00 Saint-Jerome (J7Z5B8) 1 + 2 + 9 = 12
10:00 Montréal ( H3B 1H5) 0 + 0 + 13 = 13
10:30 Longueuil (J4K 1A7) 0 + 0 + 9 = 9
11:00 joliette (J6E 5E8) 2 + 3 + 19 = 24
11:00 Saint-Jerome (J7Z5B8) 1 + 2 + 9 = 12
11:00 Beloeil (J3G 2M9) 1 + 1 + 19 = 21
12:00 Chateauguay (J6K 3J9) 3 + 3 + 7 = 13
1:30 Montreal (H3L 2E8) 0 + 2 + 43 = 45
2:00 Montreal (H2S 2M5) 2 + 3 + 31 = 36
2:00 Beloeil (J3G 2M9) 1 + 2 + 17 = 20
5:00 joliette (J6E 5E8) 0 + 0 + 9 = 9
Rhode Island
7/22 Saturday
12:00 Pawtucket (02860) 4 + 9 + 24 = 37
1:15 Warwick (02888) 4 + 8 + 17 = 29
Saskatchewan
7/22 Saturday
9:00 Lloydminster (S9V0N2) 1 + 1 + 18 = 20
2:00 Lloydminster (S9V0N2) 0 + 0 + 9 = 9
7/29 Saturday
12:00 Saskatoon (S7H 2P6) 1 + 6 + 33 = 40
South Carolina
7/22 Saturday
Anderson (29621) 0 + 0 + 13 = 13
12:00 Myrtle Beach (29588) 11 + 10 + 17 = 38
12:02 Rock Hill (29730) 2 + 2 + 11 = 15
1:00 Easley (29640) 3 + 7 + 13 = 23
3:00 Rock Hill (29730) 1 + 1 + 9 = 11
7/23 Sunday
12:30 Columbia (29210) 8 + 4 + 34 = 46
12:30 Myrtle Beach (29577) 2 + 5 + 29 = 36
2:30 Anderson (29621) 2 + 2 + 16 = 20
6:00 Myrtle Beach (29577) 0 + 0 + 8 = 8
7/25 Tuesday
5:00 Greenville ( 29609) 1 + 3 + 4 = 8
7/29 Saturday
11:00 Summerville (29485) 4 + 1 + 19 = 24
12:02 Rock Hill (29730) 3 + 4 + 15 = 22
1:00 Anderson (29621) 1 + 4 + 3 = 8
5:00 Greenville (29607) 7 + 8 + 22 = 37
7/30 Sunday
1:00 Bluffton (29910) 4 + 1 + 11 = 16
2:30 Anderson (29621) 3 + 1 + 8 = 12
South Dakota
7/29 Saturday
10:00 Rapid City (57702) 4 + 8 + 16 = 28
Tennessee
7/22 Saturday
Madison (37115) 0 + 1 + 42 = 43
10:00 Clarksville (37042) 1 + 5 + 15 = 21
10:00 Madison (37115) 0 + 6 + 31 = 37
10:00 Knoxville (37919) 6 + 8 + 25 = 39
10:00 Memphis (38133) 9 + 5 + 54 = 68
11:00 Cookeville (38501) 1 + 1 + 11 = 13
11:00 Hendersonville (37075) 8 + 8 + 12 = 28
12:00 Sevierville (37862) 0 + 1 + 17 = 18
1:00 Chattanooga (37421) 4 + 5 + 24 = 33
2:00 Madison (37115) 0 + 3 + 29 = 32
2:00 Chattanooga (37415) 2 + 1 + 7 = 10
2:00 Memphis (38133) 1 + 3 + 14 = 18
6:00 Madison (37115) 0 + 1 + 26 = 27
6:00 Murfreesboro (37129) 3 + 7 + 21 = 31
7/23 Sunday
12:00 Madison (37115) 2 + 2 + 41 = 45
12:00 Bristol (37620) 2 + 3 + 22 = 27
12:00 Maryville (37801) 3 + 3 + 6 = 12
12:00 Murfreesboro (37129) 1 + 8 + 13 = 22
4:00 Madison (37115) 1 + 3 + 34 = 38
7/26 Wednesday
4:00 Knoxville (37924) 2 + 6 + 26 = 34
7/28 Friday
12:15 Franklin (37217) 2 + 10 + 7 = 19
6:00 Murfreesboro (37129) 3 + 4 + 7 = 14
7/29 Saturday
10:00 Morristown (37813) 0 + 0 + 10 = 10
Texas
7/22 Saturday
9:00 El Paso (79902) 1 + 2 + 14 = 17
9:00 McKinney (75070) 2 + 3 + 3 = 8
9:00 Plano (75023) 2 + 9 + 14 = 25
10:00 Austin (78757) 3 + 7 + 18 = 28
10:00 Bedford (76021) 6 + 5 + 25 = 36
10:00 Humble (77338) 4 + 0 + 8 = 12
10:00 Tyler (75701) 2 + 5 + 16 = 23
11:00 Oak Ridge North (77385) 7 + 5 + 34 = 46
11:00 Dallas (75247) 2 + 3 + 26 = 31
11:00 Waco (76710) 0 + 2 + 13 = 15
11:00 Austin (78727) 0 + 4 + 18 = 22
11:30 Tyler (75707) 1 + 6 + 8 = 15
12:00 Lubbock (79412) 5 + 4 + 23 = 32
12:00 vidor (77662) 0 + 0 + 10 = 10
12:00 El Paso (79902) 1 + 1 + 26 = 28
12:00 Houston (77015) 1 + 2 + 19 = 22
1:00 Conroe (77301) 6 + 4 + 23 = 33
1:00 San Antonio (78221) 3 + 1 + 12 = 16
1:00 Longview (75604) 0 + 1 + 19 = 20
1:00 Ft. Worth (76133) 0 + 0 + 16 = 16
2:00 MANSFIELD (76063) 3 + 1 + 6 = 10
2:00 College Station (77840) 0 + 0 + 10 = 10
2:00 Killeen (76543) 2 + 2 + 16 = 20
3:00 Weslaco (78596) 0 + 6 + 48 = 54
3:00 Dallas (75247) 5 + 0 + 32 = 37
5:00 Houston (77070) 7 + 3 + 27 = 37
11:00 Killeen (76543) 0 + 0 + 10 = 10
7/23 Sunday
9:00 Copperas Cove (76522) 1 + 0 + 13 = 14
10:00 Austin (78757) 12 + 12 + 37 = 61
10:00 Houston (77098) 5 + 9 + 41 = 55
11:00 san antonio (78229) 3 + 13 + 80 = 96
11:00 Austin (78727) 3 + 4 + 33 = 40
12:00 Cypress (77429) 9 + 3 + 37 = 49
12:00 Dallas (75247) 4 + 5 + 15 = 24
12:00 Denison (75020) 1 + 3 + 24 = 28
1:00 Fort Worth (76133) 1 + 3 + 18 = 22
1:00 Conroe (77301) 2 + 0 + 18 = 20
2:00 Bedford (76021) 3 + 6 + 13 = 22
2:00 MANSFIELD (76063) 4 + 1 + 10 = 15
2:00 Corpus Christi (78413) 3 + 3 + 26 = 32
3:30 Waco (76706) 1 + 2 + 11 = 14
4:00 Joshua (76058) 1 + 0 + 7 = 8
7/24 Monday
5:00 Plano (75023) 3 + 7 + 21 = 31
6:30 Austin (78727) 0 + 2 + 18 = 20
7/26 Wednesday
6:00 Lubbock (79401) 1 + 1 + 19 = 21
7/27 Thursday
4:00 Houston (77015) 1 + 1 + 28 = 30
6:00 El Paso (79925) 2 + 2 + 68 = 72
6:30 Austin (78727) 0 + 2 + 10 = 12
7/28 Friday
5:30 Fort Worth (76133) 1 + 3 + 21 = 25
6:00 Lewisville (75067) 0 + 4 + 4 = 8
6:00 Lewisville (75057) 2 + 2 + 14 = 18
7/29 Saturday
Houston (77070) 4 + 1 + 11 = 16
10:00 Hurst (76053) 2 + 6 + 19 = 27
11:00 Houston (77077) 2 + 6 + 36 = 44
11:30 Tyler (75707) 1 + 8 + 9 = 18
12:00 Houston (77015) 3 + 1 + 32 = 36
12:00 AUSTIN (78747) 2 + 2 + 7 = 11
1:00 Frisco (75034) 10 + 8 + 22 = 40
1:00 Conroe (77301) 2 + 2 + 13 = 17
3:30 Waco (76706) 0 + 1 + 11 = 12
4:00 Fort Worth (76244) 3 + 9 + 22 = 34
5:00 Longview (75604) 0 + 2 + 14 = 16
6:00 Lewisville (75057) 1 + 2 + 10 = 13
7:30 Fort Worth (76244) 1 + 5 + 12 = 18
7/30 Sunday
12:00 New Braunfels (78130) 0 + 2 + 17 = 19
1:00 Houston (77089) 4 + 3 + 34 = 41
Utah
7/22 Saturday
10:00 West Valley City (84120) 2 + 1 + 5 = 8
11:00 Saint George (84770) 4 + 3 + 8 = 15
11:00 Midvale (84047) 4 + 7 + 21 = 32
12:00 Spanish Fork (84660) 4 + 2 + 14 = 20
1:30 Tooele (84074) 1 + 4 + 7 = 12
2:00 Sandy (84094) 0 + 7 + 17 = 24
2:30 Salt Lake City (84111) 1 + 0 + 11 = 12
5:30 West Jordan (84088) 4 + 5 + 22 = 31
7/25 Tuesday
6:45 Lehi (84043) 0 + 4 + 10 = 14
7/26 Wednesday
5:30 Layton (84041) 0 + 1 + 24 = 25
7/27 Thursday
4:00 Layton (84041) 4 + 1 + 5 = 10
5:30 Tooele (84074) 2 + 6 + 4 = 12
5:30 Bountiful (84010) 1 + 5 + 6 = 12
7/28 Friday
5:30 Sandy (84070) 0 + 11 + 22 = 33
6:00 Tooele (84074) 2 + 3 + 4 = 9
6:00 Layton (84041) 0 + 2 + 13 = 15
7/29 Saturday
9:30 Salt Lake City (84106) 15 + 5 + 21 = 41
10:00 Pleasant Grove (84062) 3 + 1 + 4 = 8
11:00 Saint George (84770) 0 + 1 + 8 = 9
5:00 North Salt Lake (84054) 1 + 2 + 17 = 20
Vermont
7/22 Saturday
10:00 Burlington (05401) 2 + 0 + 17 = 19
Virginia
7/22 Saturday
10:00 Fredericksburg (22401) 0 + 3 + 25 = 28
10:30 Sterling (20165) 4 + 1 + 6 = 11
11:00 Richmond (23228) 2 + 6 + 24 = 32
11:00 Hampton (23669) 3 + 6 + 11 = 20
12:00 Portsmouth (23701) 4 + 6 + 21 = 31
12:00 Chantilly (20151) 1 + 7 + 26 = 34
1:00 Lynchburg (24502) 4 + 4 + 6 = 14
1:00 Yorktown (23692) 3 + 4 + 9 = 16
2:30 Richmond (23228) 1 + 4 + 15 = 20
3:00 Roanoke (24012) 2 + 2 + 12 = 16
4:00 Virginia Beach (23452) 0 + 4 + 16 = 20
5:00 Newport News (23608) 3 + 1 + 26 = 30
5:30 Richmond (23228) 2 + 3 + 7 = 12
7/23 Sunday
12:00 Sterling (20165) 2 + 1 + 8 = 11
12:00 Fairfax (22031) 7 + 18 + 25 = 50
2:45 Fincastle (24090) 5 + 3 + 11 = 19
3:00 Fairfax (22031) 0 + 2 + 7 = 9
7/24 Monday
6:00 Lexington (24450) 1 + 4 + 3 = 8
7/29 Saturday
10:00 Falls Church (22046) 7 + 12 + 22 = 41
10:30 Sterling (20165) 6 + 3 + 6 = 15
11:00 Richmond (23228) 1 + 3 + 15 = 19
11:00 Hampton (23669) 4 + 6 + 16 = 26
12:00 Chantilly (20151) 3 + 4 + 31 = 38
12:00 Winchester (22601) 11 + 10 + 27 = 48
1:00 Lynchburg (24502) 1 + 4 + 14 = 19
2:30 Richmond (23228) 1 + 1 + 7 = 9
4:00 Midlothian (23113) 0 + 4 + 9 = 13
5:30 Richmond (23228) 0 + 1 + 11 = 12
7/30 Sunday
12:30 Harrisonburg (22801) 4 + 5 + 21 = 30
1:00 Charlottesville (22901) 2 + 6 + 10 = 18
2:00 Gainesville (20155) 3 + 3 + 10 = 16
2:00 Virginia Beach (23452) 0 + 2 + 8 = 10
Washington
7/22 Saturday
12:05 Spokane (99201) 0 + 3 + 23 = 26
12:05 Lakewood (98499) 1 + 3 + 8 = 12
3:00 Puyallup (98373) 0 + 5 + 11 = 16
9:00 Edmonds (98026) 5 + 7 + 17 = 29
9:00 Lynden (98264) 2 + 2 + 7 = 11
9:30 Seattle (98116) 4 + 3 + 11 = 18
10:00 Richland (99354) 0 + 3 + 18 = 21
10:00 Renton (98055) 5 + 5 + 26 = 36
12:00 Spokane (99201) 0 + 2 + 10 = 12
12:45 Renton (98055) 2 + 3 + 27 = 32
1:30 Edmonds (98026) 1 + 4 + 13 = 18
2:00 Richland (99354) 1 + 4 + 17 = 22
3:00 Spokane Valley (99216) 1 + 5 + 19 = 25
7/23 Sunday
11:00 Ellensburg (98926) 1 + 2 + 9 = 12
11:00 Lakewood (98499) 1 + 3 + 8 = 12
11:30 Spokane (99207) 3 + 11 + 34 = 48
12:00 Bremerton (98337) 8 + 4 + 21 = 33
1:00 Seattle (98109) 5 + 5 + 27 = 37
1:30 Grandview (98930) 0 + 1 + 15 = 16
5:00 Anacortes (98221) 2 + 1 + 5 = 8
7/24 Monday
4:30 Auburn (98002) 2 + 3 + 7 = 12
7/25 Tuesday
5:30 Spokane (99207) 5 + 16 + 36 = 57
6:00 Marysville (98270) 0 + 3 + 6 = 9
7/27 Thursday
5:00 Spokane Valley (99216) 3 + 3 + 8 = 14
6:00 Marysville (98270) 2 + 3 + 19 = 24
7/29 Saturday
10:00 Lacey (98503) 4 + 10 + 17 = 31
12:00 Tacoma (98406) 2 + 3 + 8 = 13
12:00 Kirkland (98033) 2 + 2 + 10 = 14
3:00 Puyallup (98373) 3 + 2 + 10 = 15
5:00 Tacoma (98409) 2 + 2 + 7 = 11
7/30 Sunday
11:00 Bellevue (98005) 5 + 11 + 27 = 43
12:30 Mt Vernon (98273) 1 + 3 + 8 = 12
3:30 Seattle (98107) 2 + 2 + 4 = 8
5:00 Coupeville (98239) 2 + 1 + 5 = 8
West Virginia
7/22 Saturday
3:00 Vienna (26105) 1 + 4 + 9 = 14
7/23 Sunday
10:00 Morgantown (26501) 7 + 7 + 9 = 23
7/29 Saturday
11:00 Parkersburg (26101) 1 + 8 + 21 = 30
Wisconsin
7/22 Saturday
9:00 Appleton (54915) 4 + 6 + 16 = 26
9:00 Green Bay (54304) 4 + 6 + 22 = 32
11:00 La Crosse (54601) 2 + 1 + 11 = 14
11:00 Oconomowoc (53066) 3 + 5 + 27 = 35
12:00 Fond du Lac (54935) 3 + 6 + 22 = 31
7/23 Sunday
10:00 La Crosse (54601) 2 + 4 + 9 = 15
11:00 Kenosha (53142) 3 + 3 + 32 = 38
12:00 Schofield (54476) 2 + 6 + 20 = 28
12:00 Appleton (54914) 1 + 0 + 7 = 8
12:00 Madison (53719) 9 + 14 + 35 = 58
12:00 Oshkosh (54902) 4 + 6 + 16 = 26
12:30 Green Bay (54302) 8 + 5 + 18 = 31
7/25 Tuesday
3:00 Sheboygan (53081) 9 + 8 + 7 = 24
7/29 Saturday
9:00 Appleton (54915) 0 + 10 + 18 = 28
9:00 Green Bay (54304) 2 + 6 + 14 = 22
11:00 La Crosse (54601) 6 + 8 + 8 = 22
7/30 Sunday
11:00 La Crosse (54601) 3 + 3 + 13 = 19
11:00 Stevens Point (54481) 4 + 6 + 9 = 19
12:30 Green Bay (54302) 5 + 11 + 22 = 38
Wyoming
7/23 Sunday
1:00 Cheyenne (82001) 3 + 2 + 13 = 18